Time;durP1;ratioP1;P1;durP2;ratioP2;P2;SDS_P1;SDS_P2;PMS_P1;PMS_P2;Temp;Humidity;BMP_temperature;BMP_pressure;BME280_temperature;BME280_humidity;BME280_pressure;Samples;Min_cycle;Max_cycle;Signal;HPM_P1;HPM_P2
2022/12/03 00:02:16;;;;;;;19.83;12.25;;;4.10;99.90;;;;;;5113848;28;20827;-62
2022/12/03 00:04:41;;;;;;;21.52;11.50;;;4.20;99.90;;;;;;5113459;28;20046;-62
2022/12/03 00:07:07;;;;;;;19.58;11.00;;;4.30;99.90;;;;;;5113530;28;20439;-62
2022/12/03 00:09:33;;;;;;;19.60;11.43;;;4.20;99.90;;;;;;5113421;28;20069;-62
2022/12/03 00:11:58;;;;;;;22.02;12.40;;;4.30;99.90;;;;;;5113599;28;20040;-62
2022/12/03 00:14:24;;;;;;;19.35;11.07;;;4.30;99.90;;;;;;5113000;28;20363;-61
2022/12/03 00:16:49;;;;;;;17.00;10.32;;;4.30;99.90;;;;;;5113134;28;20073;-62
2022/12/03 00:19:15;;;;;;;17.42;10.63;;;4.40;99.90;;;;;;5095149;28;20040;-62
2022/12/03 00:21:41;;;;;;;20.17;11.52;;;4.50;99.90;;;;;;5113215;28;20104;-61
2022/12/03 00:24:07;;;;;;;18.45;10.45;;;4.50;99.90;;;;;;5113182;28;20040;-61
2022/12/03 00:26:32;;;;;;;20.45;11.38;;;4.50;99.90;;;;;;5113494;28;20046;-62
2022/12/03 00:28:58;;;;;;;16.35;10.45;;;4.50;99.90;;;;;;5113101;28;20482;-61
2022/12/03 00:31:24;;;;;;;18.08;10.95;;;4.50;99.90;;;;;;5113114;28;20047;-62
2022/12/03 00:33:50;;;;;;;16.98;9.85;;;4.60;99.90;;;;;;5112927;28;20110;-62
2022/12/03 00:36:17;;;;;;;15.45;10.68;;;4.50;99.90;;;;;;5112696;28;20595;-62
2022/12/03 00:38:43;;;;;;;17.08;10.90;;;4.60;99.90;;;;;;5112736;28;20043;-61
2022/12/03 00:41:08;;;;;;;17.52;10.63;;;4.60;99.90;;;;;;5094771;28;20477;-62
2022/12/03 00:43:34;;;;;;;17.33;10.52;;;4.60;99.90;;;;;;5113170;28;20055;-61
2022/12/03 00:45:59;;;;;;;16.65;10.85;;;4.60;99.90;;;;;;5113016;28;20112;-61
2022/12/03 00:48:25;;;;;;;15.95;10.88;;;4.60;99.90;;;;;;5112877;28;20031;-61
2022/12/03 00:50:51;;;;;;;13.60;9.55;;;4.60;99.90;;;;;;5094516;28;20440;-62
2022/12/03 00:53:16;;;;;;;17.35;10.40;;;4.60;99.90;;;;;;5112717;28;20114;-62
2022/12/03 00:55:42;;;;;;;19.83;10.95;;;4.70;99.90;;;;;;5112978;28;20070;-62
2022/12/03 00:58:08;;;;;;;18.75;10.55;;;4.60;99.90;;;;;;5112881;28;20485;-62
2022/12/03 01:00:34;;;;;;;18.00;10.63;;;4.60;99.90;;;;;;5112313;28;20492;-63
2022/12/03 01:03:00;;;;;;;18.48;11.40;;;4.60;99.90;;;;;;5112771;28;20078;-61
2022/12/03 01:05:26;;;;;;;14.48;10.63;;;4.70;99.90;;;;;;5112819;28;20067;-62
2022/12/03 01:07:51;;;;;;;16.90;10.52;;;4.60;99.90;;;;;;5112818;28;20092;-61
2022/12/03 01:10:17;;;;;;;16.63;11.27;;;4.70;99.90;;;;;;5112965;28;20040;-62
2022/12/03 01:12:43;;;;;;;16.38;10.35;;;4.60;99.90;;;;;;5112637;28;20036;-61
2022/12/03 01:15:09;;;;;;;16.70;10.77;;;4.70;99.90;;;;;;5112556;28;20042;-62
2022/12/03 01:17:35;;;;;;;19.05;10.93;;;4.70;99.90;;;;;;5094290;28;20089;-62
2022/12/03 01:20:02;;;;;;;16.00;11.10;;;4.70;99.90;;;;;;5112323;28;20047;-61
2022/12/03 01:22:28;;;;;;;17.85;10.40;;;4.70;99.90;;;;;;5112354;28;20451;-61
2022/12/03 01:24:54;;;;;;;18.15;11.32;;;4.70;99.90;;;;;;5112860;28;20134;-61
2022/12/03 01:27:19;;;;;;;17.35;11.23;;;4.70;99.90;;;;;;5112947;28;20088;-62
2022/12/03 01:29:45;;;;;;;17.35;10.65;;;4.70;99.90;;;;;;5112442;28;20165;-61
2022/12/03 01:32:18;;;;;;;20.95;11.00;;;4.70;99.90;;;;;;5112336;28;20043;-61
2022/12/03 01:34:49;;;;;;;17.23;11.02;;;4.70;99.90;;;;;;5094391;28;20402;-61
2022/12/03 01:37:15;;;;;;;18.10;10.63;;;4.70;99.90;;;;;;5112358;28;20032;-62
2022/12/03 01:39:41;;;;;;;18.83;11.65;;;4.70;99.90;;;;;;5112126;28;20505;-61
2022/12/03 01:42:11;;;;;;;15.90;10.80;;;4.70;99.90;;;;;;5112292;28;20090;-61
2022/12/03 01:44:39;;;;;;;19.10;12.13;;;4.60;99.90;;;;;;5112561;28;20390;-61
2022/12/03 01:47:09;;;;;;;17.50;11.88;;;4.60;99.90;;;;;;5094468;28;20036;-61
2022/12/03 01:49:35;;;;;;;19.45;12.45;;;4.60;99.90;;;;;;5112445;28;20164;-61
2022/12/03 01:52:00;;;;;;;18.10;11.70;;;4.60;99.90;;;;;;5112190;28;20122;-61
2022/12/03 01:54:35;;;;;;;19.08;12.05;;;4.60;99.90;;;;;;5112441;28;20114;-61
2022/12/03 01:57:01;;;;;;;18.08;12.05;;;4.60;99.90;;;;;;5112382;28;20039;-61
2022/12/03 01:59:33;;;;;;;19.58;12.70;;;4.60;99.90;;;;;;5111893;28;20040;-61
2022/12/03 02:02:07;;;;;;;17.27;11.70;;;4.60;99.90;;;;;;5112623;28;20035;-61
2022/12/03 02:04:33;;;;;;;17.80;11.70;;;4.60;99.90;;;;;;5112500;28;20047;-61
2022/12/03 02:07:19;;;;;;;19.35;13.35;;;4.60;99.90;;;;;;5093760;28;20043;-61
2022/12/03 02:09:44;;;;;;;22.27;13.50;;;4.60;99.90;;;;;;5094028;28;20075;-61
2022/12/03 02:12:10;;;;;;;22.00;12.75;;;4.60;99.90;;;;;;5114502;28;20075;-61
2022/12/03 02:14:36;;;;;;;20.95;12.75;;;4.60;99.90;;;;;;5116306;28;20040;-61
2022/12/03 02:17:02;;;;;;;19.63;12.90;;;4.60;99.90;;;;;;5116059;28;20812;-62
2022/12/03 02:19:30;;;;;;;19.15;12.25;;;4.60;99.90;;;;;;5115934;28;20395;-61
2022/12/03 02:22:23;;;;;;;22.80;13.93;;;4.60;99.90;;;;;;5115689;28;20108;-61
2022/12/03 02:25:11;;;;;;;21.45;13.05;;;4.60;99.90;;;;;;5115790;28;20039;-62
2022/12/03 02:27:37;;;;;;;19.33;13.07;;;4.60;99.90;;;;;;5115747;28;20040;-61
2022/12/03 02:30:04;;;;;;;19.23;12.88;;;4.50;99.90;;;;;;5115532;28;20047;-61
2022/12/03 02:32:30;;;;;;;22.23;12.23;;;4.50;99.90;;;;;;5115259;28;20032;-62
2022/12/03 02:34:56;;;;;;;22.60;12.77;;;4.50;99.90;;;;;;5115191;28;20489;-61
2022/12/03 02:37:26;;;;;;;17.38;11.93;;;4.50;99.90;;;;;;5115350;28;20039;-61
2022/12/03 02:39:55;;;;;;;20.98;12.32;;;4.50;99.90;;;;;;5115297;28;20040;-61
2022/12/03 02:42:33;;;;;;;20.15;13.27;;;4.50;99.90;;;;;;5115360;28;20389;-61
2022/12/03 02:45:12;;;;;;;18.42;12.88;;;4.50;99.90;;;;;;5115133;28;20134;-62
2022/12/03 02:47:45;;;;;;;20.33;13.00;;;4.50;99.90;;;;;;5115090;28;20043;-61
2022/12/03 02:50:14;;;;;;;18.90;12.40;;;4.50;99.90;;;;;;5114921;28;20071;-62
2022/12/03 02:52:42;;;;;;;21.35;11.98;;;4.50;99.90;;;;;;5115145;28;20040;-61
2022/12/03 02:55:08;;;;;;;16.65;11.32;;;4.40;99.90;;;;;;5115035;28;20543;-61
2022/12/03 02:57:36;;;;;;;19.02;12.77;;;4.40;99.90;;;;;;5114812;28;20039;-62
2022/12/03 03:00:04;;;;;;;21.40;12.07;;;4.50;99.90;;;;;;5114920;28;20088;-61
2022/12/03 03:02:29;;;;;;;20.00;12.05;;;4.40;99.90;;;;;;5096421;28;20123;-61
2022/12/03 03:04:56;;;;;;;18.98;11.77;;;4.40;99.90;;;;;;5114873;28;20130;-61
2022/12/03 03:07:22;;;;;;;19.65;11.98;;;4.50;99.90;;;;;;5114943;28;20043;-61
2022/12/03 03:09:47;;;;;;;18.15;12.15;;;4.40;99.90;;;;;;5114669;28;20546;-62
2022/12/03 03:12:13;;;;;;;19.02;12.38;;;4.30;99.90;;;;;;5114739;28;20118;-61
2022/12/03 03:14:39;;;;;;;17.63;12.15;;;4.30;99.90;;;;;;5114559;28;20057;-62
2022/12/03 03:17:05;;;;;;;20.40;13.57;;;4.30;99.90;;;;;;5114387;28;20048;-62
2022/12/03 03:19:31;;;;;;;18.98;12.40;;;4.30;99.90;;;;;;5114629;28;20097;-62
2022/12/03 03:21:57;;;;;;;20.20;12.80;;;4.20;99.90;;;;;;5114336;28;20043;-61
2022/12/03 03:24:24;;;;;;;20.73;13.57;;;4.30;99.90;;;;;;5114309;28;20035;-61
2022/12/03 03:26:50;;;;;;;21.95;13.23;;;4.20;99.90;;;;;;5114419;28;20046;-62
2022/12/03 03:29:16;;;;;;;21.70;13.10;;;4.20;99.90;;;;;;5114189;28;20040;-61
2022/12/03 03:31:44;;;;;;;20.73;12.43;;;4.20;99.90;;;;;;5113972;28;20110;-62
2022/12/03 03:34:10;;;;;;;21.27;12.65;;;4.20;99.90;;;;;;5114006;28;20035;-62
2022/12/03 03:36:35;;;;;;;21.30;13.35;;;4.20;99.90;;;;;;5114024;28;20054;-62
2022/12/03 03:39:02;;;;;;;18.85;12.52;;;4.20;99.90;;;;;;5095929;28;20039;-61
2022/12/03 03:41:29;;;;;;;20.55;13.90;;;4.10;99.90;;;;;;5113918;28;20047;-61
2022/12/03 03:43:55;;;;;;;19.63;13.13;;;4.10;99.90;;;;;;5113920;28;20157;-62
2022/12/03 03:46:21;;;;;;;25.15;13.77;;;4.10;99.90;;;;;;5113722;28;20046;-62
2022/12/03 03:48:48;;;;;;;20.25;12.43;;;4.10;99.90;;;;;;5113885;28;20078;-62
2022/12/03 03:51:15;;;;;;;23.45;13.48;;;4.10;99.90;;;;;;5113806;28;20039;-62
2022/12/03 03:53:44;;;;;;;22.35;14.20;;;4.00;99.90;;;;;;5113722;28;20036;-61
2022/12/03 03:56:10;;;;;;;18.83;12.27;;;4.00;99.90;;;;;;5113863;28;20387;-61
2022/12/03 03:58:36;;;;;;;22.27;13.82;;;4.00;99.90;;;;;;5113601;28;20106;-62
2022/12/03 04:01:02;;;;;;;21.40;13.40;;;4.00;99.90;;;;;;5113675;28;20047;-61
2022/12/03 04:03:28;;;;;;;21.42;13.02;;;4.00;99.90;;;;;;5113596;28;20432;-61
2022/12/03 04:05:54;;;;;;;20.35;12.82;;;4.00;99.90;;;;;;5095358;28;20397;-62
2022/12/03 04:08:20;;;;;;;19.52;12.90;;;4.00;99.90;;;;;;5113542;28;20043;-61
2022/12/03 04:13:29;;;;;;;21.92;13.27;;;4.00;99.90;;;;;;5113256;28;20039;-61
2022/12/03 04:15:55;;;;;;;23.23;13.63;;;3.90;99.90;;;;;;5113384;28;20061;-62
2022/12/03 04:23:50;;;;;;;22.77;14.65;;;3.90;99.90;;;;;;5113238;28;20048;-62
2022/12/03 04:29:00;;;;;;;23.13;14.00;;;3.90;99.90;;;;;;5113139;28;20047;-61
2022/12/03 04:36:54;;;;;;;21.05;13.77;;;3.90;99.90;;;;;;5113110;28;20046;-61
2022/12/03 04:39:20;;;;;;;21.25;13.73;;;3.90;99.90;;;;;;5113034;28;20044;-61
2022/12/03 04:41:46;;;;;;;25.00;13.88;;;3.90;99.90;;;;;;5112799;28;20074;-62
2022/12/03 04:46:56;;;;;;;20.48;13.10;;;3.90;99.90;;;;;;5112668;28;20043;-62
2022/12/03 04:49:22;;;;;;;21.23;13.90;;;3.90;99.90;;;;;;5112880;28;20108;-62
2022/12/03 04:51:47;;;;;;;22.80;13.63;;;3.80;99.90;;;;;;5112732;28;20038;-61
2022/12/03 04:54:13;;;;;;;21.90;13.95;;;3.80;99.90;;;;;;5112819;28;20040;-61
2022/12/03 04:56:39;;;;;;;23.95;14.20;;;3.80;99.90;;;;;;5112562;28;20401;-61
2022/12/03 04:59:04;;;;;;;23.23;14.32;;;3.80;99.90;;;;;;5112848;28;20763;-61
2022/12/03 05:01:30;;;;;;;27.30;14.40;;;3.80;99.90;;;;;;5112691;28;20032;-61
2022/12/03 05:03:55;;;;;;;22.92;14.30;;;3.80;99.90;;;;;;5112654;28;20031;-62
2022/12/03 05:06:21;;;;;;;22.42;14.45;;;3.80;99.90;;;;;;5112640;28;20035;-62
2022/12/03 05:08:47;;;;;;;23.83;14.02;;;3.80;99.90;;;;;;5112580;28;20085;-62
2022/12/03 05:11:13;;;;;;;20.90;14.30;;;3.80;99.90;;;;;;5112430;28;20043;-62
2022/12/03 05:13:38;;;;;;;24.75;14.32;;;4.60;99.90;;;;;;5112381;28;20110;-62
2022/12/03 05:16:04;;;;;;;23.35;14.02;;;3.80;99.90;;;;;;5112321;28;20039;-62
2022/12/03 05:18:30;;;;;;;23.02;14.85;;;3.80;99.90;;;;;;5112856;28;20032;-61
2022/12/03 05:20:55;;;;;;;23.67;15.45;;;3.80;99.90;;;;;;5112714;28;20039;-62
2022/12/03 05:23:21;;;;;;;21.65;13.57;;;3.80;99.90;;;;;;5112504;28;20032;-62
2022/12/03 05:25:47;;;;;;;25.58;14.35;;;3.80;99.90;;;;;;5112631;28;20390;-62
2022/12/03 05:28:12;;;;;;;24.45;14.57;;;3.80;99.90;;;;;;5112536;28;20040;-62
2022/12/03 05:30:38;;;;;;;26.23;14.30;;;3.80;99.90;;;;;;5112573;28;20047;-61
2022/12/03 05:33:04;;;;;;;23.67;13.88;;;3.80;99.90;;;;;;5112125;28;20520;-61
2022/12/03 05:35:30;;;;;;;21.73;13.25;;;3.70;99.90;;;;;;5112792;28;20039;-61
2022/12/03 05:37:55;;;;;;;27.30;14.82;;;3.70;99.90;;;;;;5112773;28;20146;-62
2022/12/03 05:40:21;;;;;;;23.58;14.32;;;3.70;99.90;;;;;;5112195;28;20105;-61
2022/12/03 05:42:52;;;;;;;25.50;14.52;;;3.70;99.90;;;;;;5112732;28;20401;-61
2022/12/03 05:45:26;;;;;;;23.20;14.35;;;3.70;99.90;;;;;;5113878;28;20043;-62
2022/12/03 05:47:53;;;;;;;28.05;15.40;;;3.70;99.90;;;;;;5116311;28;20045;-63
2022/12/03 05:50:21;;;;;;;23.98;13.80;;;3.70;99.90;;;;;;5116061;28;20043;-62
2022/12/03 05:52:46;;;;;;;23.83;14.68;;;3.70;99.90;;;;;;5116283;28;20038;-62
2022/12/03 05:55:13;;;;;;;25.52;14.45;;;3.70;99.90;;;;;;5116461;28;20377;-62
2022/12/03 05:57:38;;;;;;;25.20;15.00;;;3.70;99.90;;;;;;5115504;28;20046;-61
2022/12/03 06:00:10;;;;;;;24.33;13.88;;;3.70;99.90;;;;;;5116341;28;20039;-61
2022/12/03 06:02:36;;;;;;;23.42;13.85;;;3.70;99.90;;;;;;5098344;28;20039;-61
2022/12/03 06:05:01;;;;;;;24.55;15.40;;;3.70;99.90;;;;;;5116048;28;20061;-62
2022/12/03 06:07:27;;;;;;;24.65;14.48;;;3.70;99.90;;;;;;5116150;28;20078;-61
2022/12/03 06:09:52;;;;;;;22.33;14.38;;;3.70;99.90;;;;;;5115743;28;20126;-62
2022/12/03 06:12:18;;;;;;;22.30;14.48;;;3.70;99.90;;;;;;5116191;28;20067;-61
2022/12/03 06:14:44;;;;;;;23.67;14.23;;;3.70;99.90;;;;;;5115671;28;20118;-61
2022/12/03 06:17:09;;;;;;;22.40;14.27;;;3.70;99.90;;;;;;5115537;28;20080;-61
2022/12/03 06:19:35;;;;;;;23.08;14.07;;;3.70;99.90;;;;;;5115909;28;20047;-61
2022/12/03 06:22:00;;;;;;;25.13;14.85;;;3.70;99.90;;;;;;5116070;28;20040;-62
2022/12/03 06:24:26;;;;;;;23.77;14.50;;;3.70;99.90;;;;;;5115676;28;20080;-62
2022/12/03 06:26:52;;;;;;;23.10;13.73;;;3.70;99.90;;;;;;5115453;28;20454;-61
2022/12/03 06:29:17;;;;;;;22.55;14.73;;;3.70;99.90;;;;;;5115493;28;20046;-61
2022/12/03 06:31:43;;;;;;;23.45;13.00;;;3.70;99.90;;;;;;5115551;28;20035;-62
2022/12/03 06:34:08;;;;;;;22.60;14.02;;;3.70;99.90;;;;;;5115577;28;20481;-61
2022/12/03 06:36:34;;;;;;;18.70;12.52;;;3.70;99.90;;;;;;5115684;28;20123;-61
2022/12/03 06:38:59;;;;;;;20.92;13.30;;;3.70;99.90;;;;;;5115271;28;20485;-62
2022/12/03 06:41:25;;;;;;;23.90;13.98;;;3.70;99.90;;;;;;5114611;28;20043;-61
2022/12/03 06:43:51;;;;;;;21.15;12.43;;;3.70;99.90;;;;;;5096893;28;20047;-61
2022/12/03 06:46:16;;;;;;;21.67;12.27;;;3.70;99.90;;;;;;5115266;28;20075;-62
2022/12/03 06:48:42;;;;;;;25.05;13.30;;;3.60;99.90;;;;;;5095459;28;20028;-61
2022/12/03 06:51:07;;;;;;;23.48;13.48;;;3.60;99.90;;;;;;5111907;28;20032;-62
2022/12/03 06:53:33;;;;;;;22.45;13.90;;;3.60;99.90;;;;;;5115034;28;20087;-61
2022/12/03 06:55:58;;;;;;;24.73;13.60;;;3.60;99.90;;;;;;5096907;28;20158;-61
2022/12/03 06:58:24;;;;;;;22.30;12.88;;;3.60;99.90;;;;;;5114292;28;20038;-62
2022/12/03 07:00:50;;;;;;;23.88;13.57;;;3.60;99.90;;;;;;5114959;28;20039;-62
2022/12/03 07:03:15;;;;;;;22.10;12.73;;;3.60;99.90;;;;;;5114770;28;20096;-61
2022/12/03 07:05:41;;;;;;;19.42;12.35;;;3.50;99.90;;;;;;5114756;28;20058;-62
2022/12/03 07:08:06;;;;;;;23.92;13.30;;;3.50;99.90;;;;;;5114842;28;20465;-62
2022/12/03 07:10:32;;;;;;;22.40;13.85;;;3.50;99.90;;;;;;5114984;28;20042;-62
2022/12/03 07:12:58;;;;;;;22.02;13.18;;;3.50;99.90;;;;;;5114826;28;20039;-62
2022/12/03 07:15:23;;;;;;;20.73;13.15;;;3.50;99.90;;;;;;5114607;28;20043;-62
2022/12/03 07:17:49;;;;;;;24.27;13.05;;;3.50;99.90;;;;;;5112948;28;20034;-61
2022/12/03 07:20:15;;;;;;;20.98;12.55;;;3.50;99.90;;;;;;5113712;28;20044;-62
2022/12/03 07:22:41;;;;;;;26.38;14.13;;;3.50;99.90;;;;;;5114680;28;20039;-61
2022/12/03 07:25:07;;;;;;;22.45;13.13;;;3.50;99.90;;;;;;5114249;28;20401;-61
2022/12/03 07:27:33;;;;;;;26.77;14.45;;;3.50;99.90;;;;;;5114321;28;20390;-62
2022/12/03 07:29:58;;;;;;;22.52;12.77;;;3.40;99.90;;;;;;5113627;28;20043;-62
2022/12/03 07:32:24;;;;;;;25.40;13.98;;;3.40;99.90;;;;;;5096265;28;20039;-61
2022/12/03 07:34:49;;;;;;;22.85;13.48;;;3.40;99.90;;;;;;5114553;28;20146;-62
2022/12/03 07:37:15;;;;;;;25.85;12.70;;;3.40;99.90;;;;;;5114242;28;20036;-61
2022/12/03 07:39:41;;;;;;;23.70;12.30;;;3.40;99.90;;;;;;5114064;28;20047;-61
2022/12/03 07:42:08;;;;;;;21.20;13.13;;;3.40;99.90;;;;;;5113723;28;20512;-62
2022/12/03 07:44:34;;;;;;;22.27;12.52;;;3.40;99.90;;;;;;5114068;28;20039;-62
2022/12/03 07:46:59;;;;;;;23.50;13.25;;;3.40;99.90;;;;;;5095146;28;20058;-61
2022/12/03 07:49:25;;;;;;;23.42;13.18;;;3.40;99.90;;;;;;5112025;28;20039;-61
2022/12/03 07:51:55;;;;;;;22.35;12.80;;;3.40;99.90;;;;;;5112303;28;20047;-62
2022/12/03 07:54:22;;;;;;;22.63;13.00;;;3.40;99.90;;;;;;5113718;28;20393;-62
2022/12/03 07:56:48;;;;;;;24.65;13.02;;;3.40;99.90;;;;;;5114029;28;20063;-61
2022/12/03 07:59:15;;;;;;;24.42;13.73;;;3.40;99.90;;;;;;5095469;28;20083;-62
2022/12/03 08:01:40;;;;;;;24.88;14.25;;;3.40;99.90;;;;;;5113915;28;20031;-61
2022/12/03 08:04:06;;;;;;;22.52;13.45;;;3.40;99.90;;;;;;5113665;28;20112;-61
2022/12/03 08:06:32;;;;;;;25.10;14.07;;;3.30;99.90;;;;;;5113500;28;20141;-61
2022/12/03 08:08:57;;;;;;;23.52;13.43;;;3.30;99.90;;;;;;5112907;28;20038;-62
2022/12/03 08:11:23;;;;;;;25.50;13.50;;;3.30;99.90;;;;;;5113627;28;20509;-62
2022/12/03 08:13:48;;;;;;;21.00;12.20;;;3.30;99.90;;;;;;5113714;28;20040;-61
2022/12/03 08:16:17;;;;;;;23.13;14.52;;;3.30;99.90;;;;;;5113688;28;20042;-62
2022/12/03 08:18:45;;;;;;;24.15;14.18;;;3.30;99.90;;;;;;5111942;28;20028;-61
2022/12/03 08:21:12;;;;;;;24.95;13.50;;;3.30;99.90;;;;;;5112132;28;20042;-61
2022/12/03 08:23:38;;;;;;;23.70;13.50;;;3.20;99.90;;;;;;5112928;28;20047;-62
2022/12/03 08:26:15;;;;;;;24.38;14.00;;;3.20;99.90;;;;;;5112966;28;20040;-61
2022/12/03 08:28:41;;;;;;;24.55;13.85;;;3.20;99.90;;;;;;5113346;28;20059;-62
2022/12/03 08:31:22;;;;;;;24.65;14.27;;;3.20;99.90;;;;;;5094448;28;20082;-63
2022/12/03 08:33:50;;;;;;;27.08;14.73;;;3.20;99.90;;;;;;5113020;28;20040;-61
2022/12/03 08:36:22;;;;;;;24.73;13.63;;;3.20;99.90;;;;;;5112996;28;20039;-62
2022/12/03 08:38:55;;;;;;;24.63;14.75;;;3.20;99.90;;;;;;5094988;28;20122;-62
2022/12/03 08:44:27;;;;;;;25.55;15.02;;;3.20;99.90;;;;;;5112643;28;20047;-61
2022/12/03 08:47:09;;;;;;;26.52;15.40;;;3.10;99.90;;;;;;5112700;28;20123;-62
2022/12/03 08:49:35;;;;;;;26.35;14.32;;;3.20;99.90;;;;;;5111163;28;20470;-62
2022/12/03 08:52:14;;;;;;;24.85;14.10;;;3.10;99.90;;;;;;5110331;28;20534;-62
2022/12/03 08:54:41;;;;;;;24.63;14.70;;;3.20;99.90;;;;;;5111950;28;20048;-61
2022/12/03 08:57:36;;;;;;;27.55;14.27;;;3.10;99.90;;;;;;5112908;28;20126;-62
2022/12/03 09:00:18;;;;;;;24.60;13.23;;;3.10;99.90;;;;;;5010204;28;20141;-63
2022/12/03 09:02:49;;;;;;;28.65;15.40;;;3.10;99.90;;;;;;5010363;28;20048;-61
2022/12/03 09:05:19;;;;;;;28.55;15.15;;;3.10;99.90;;;;;;5010258;28;20045;-62
2022/12/03 09:07:44;;;;;;;;;;;3.10;99.90;;;;;;5010670;28;20046;-62
2022/12/03 09:10:10;;;;;;;31.20;15.23;;;3.10;99.90;;;;;;5010145;28;20008;-62
2022/12/03 09:12:36;;;;;;;29.27;15.90;;;3.00;99.90;;;;;;5010359;28;20145;-62
2022/12/03 09:15:01;;;;;;;26.60;15.02;;;3.10;99.90;;;;;;5010231;28;20038;-62
2022/12/03 09:17:27;;;;;;;25.35;14.00;;;3.10;99.90;;;;;;5011981;28;20049;-62
2022/12/03 09:19:53;;;;;;;28.83;16.33;;;3.10;99.90;;;;;;5029429;28;20047;-62
2022/12/03 09:22:19;;;;;;;28.05;16.33;;;3.00;99.90;;;;;;5032564;28;20103;-61
2022/12/03 09:24:45;;;;;;;30.50;16.30;;;3.10;99.90;;;;;;5034017;28;20463;-63
2022/12/03 09:27:10;;;;;;;31.85;16.00;;;3.10;99.90;;;;;;5033743;28;20148;-62
2022/12/03 09:29:36;;;;;;;29.65;16.42;;;3.00;99.90;;;;;;5033525;28;20059;-62
2022/12/03 09:32:02;;;;;;;25.83;14.55;;;3.00;99.90;;;;;;5033566;28;20535;-62
2022/12/03 09:34:27;;;;;;;30.98;17.48;;;3.00;99.90;;;;;;5016084;28;20045;-61
2022/12/03 09:36:53;;;;;;;26.27;16.02;;;3.00;99.90;;;;;;5085949;28;20457;-61
2022/12/03 09:39:19;;;;;;;30.25;15.95;;;3.00;99.90;;;;;;5116310;28;20036;-61
2022/12/03 09:41:45;;;;;;;31.27;16.90;;;2.90;99.90;;;;;;5116044;28;20052;-61
2022/12/03 09:44:11;;;;;;;32.53;16.95;;;2.90;99.90;;;;;;5116172;28;20108;-61
2022/12/03 09:46:38;;;;;;;27.10;16.17;;;2.90;99.90;;;;;;5116043;28;20097;-61
2022/12/03 09:49:06;;;;;;;27.10;16.52;;;2.90;99.90;;;;;;5115556;28;20036;-62
2022/12/03 09:51:34;;;;;;;30.35;17.38;;;2.90;99.90;;;;;;5116262;28;20040;-61
2022/12/03 09:54:03;;;;;;;29.77;15.63;;;2.90;99.90;;;;;;5116139;28;20039;-61
2022/12/03 09:56:28;;;;;;;31.27;18.05;;;2.90;99.90;;;;;;5115924;28;20039;-61
2022/12/03 09:58:54;;;;;;;35.55;16.48;;;2.90;99.90;;;;;;5097580;28;20396;-60
2022/12/03 10:01:20;;;;;;;31.40;16.88;;;2.90;99.90;;;;;;5115668;28;20042;-61
2022/12/03 10:03:49;;;;;;;28.92;16.52;;;2.90;99.90;;;;;;5115973;28;20509;-59
2022/12/03 10:06:21;;;;;;;29.23;16.73;;;2.90;99.90;;;;;;5116159;28;20035;-60
2022/12/03 10:08:53;;;;;;;29.38;16.25;;;3.00;99.90;;;;;;5115751;28;20036;-60
2022/12/03 10:11:21;;;;;;;28.23;16.52;;;2.90;99.90;;;;;;5115757;28;20051;-60
2022/12/03 10:13:47;;;;;;;32.53;17.30;;;2.90;99.90;;;;;;5115522;28;20110;-60
2022/12/03 10:16:15;;;;;;;29.55;15.98;;;3.00;99.90;;;;;;5115697;28;20115;-61
2022/12/03 10:18:46;;;;;;;28.63;15.57;;;2.90;99.90;;;;;;5115620;28;20031;-60
2022/12/03 10:21:34;;;;;;;29.73;16.80;;;2.90;99.90;;;;;;5097805;28;20366;-61
2022/12/03 10:24:20;;;;;;;30.20;15.20;;;2.90;99.90;;;;;;5115226;28;20048;-61
2022/12/03 10:26:47;;;;;;;32.03;16.73;;;2.90;99.90;;;;;;5115245;28;20481;-61
2022/12/03 10:29:23;;;;;;;29.65;15.85;;;2.90;99.90;;;;;;5115179;28;20100;-61
2022/12/03 10:31:57;;;;;;;31.40;16.27;;;2.90;99.90;;;;;;5114462;28;20044;-61
2022/12/03 10:34:29;;;;;;;29.67;15.82;;;2.90;99.90;;;;;;5115609;28;20183;-61
2022/12/03 10:37:16;;;;;;;28.25;16.10;;;2.90;99.90;;;;;;5115208;28;20039;-60
2022/12/03 10:39:52;;;;;;;28.58;16.23;;;2.90;99.90;;;;;;5115220;28;20088;-60
2022/12/03 10:42:18;;;;;;;31.38;16.65;;;2.90;99.90;;;;;;5096736;28;20426;-61
2022/12/03 10:44:44;;;;;;;29.65;16.88;;;2.90;99.90;;;;;;5097037;28;20045;-60
2022/12/03 10:47:12;;;;;;;29.27;15.50;;;2.90;99.90;;;;;;5114914;28;20114;-60
2022/12/03 10:49:39;;;;;;;30.58;17.10;;;3.00;99.90;;;;;;5115078;28;20051;-61
2022/12/03 10:52:19;;;;;;;29.27;16.65;;;3.00;99.90;;;;;;5114855;28;20032;-60
2022/12/03 10:54:45;;;;;;;25.48;15.55;;;2.90;99.90;;;;;;5114931;28;20040;-61
2022/12/03 10:57:12;;;;;;;27.75;15.23;;;3.00;99.90;;;;;;5114719;28;20047;-61
2022/12/03 10:59:40;;;;;;;27.23;15.20;;;3.00;99.90;;;;;;5096368;28;20046;-63
2022/12/03 11:02:22;;;;;;;32.15;16.73;;;2.90;99.90;;;;;;5114955;28;20044;-61
2022/12/03 11:04:49;;;;;;;27.40;14.88;;;3.00;99.90;;;;;;5114934;28;20089;-61
2022/12/03 11:07:17;;;;;;;31.10;17.50;;;3.00;99.90;;;;;;5096818;28;20075;-61
2022/12/03 11:09:45;;;;;;;32.00;17.93;;;3.00;99.90;;;;;;5114578;28;20040;-61
2022/12/03 11:12:19;;;;;;;30.02;16.52;;;2.90;99.90;;;;;;5114415;28;20095;-60
2022/12/03 11:14:52;;;;;;;28.45;15.95;;;2.90;99.90;;;;;;5096197;28;20042;-61
2022/12/03 11:17:39;;;;;;;31.88;17.25;;;2.90;99.90;;;;;;5096143;28;20043;-61
2022/12/03 11:20:23;;;;;;;29.02;16.40;;;2.90;99.90;;;;;;5113123;28;20044;-61
2022/12/03 11:22:54;;;;;;;30.70;17.52;;;2.90;99.90;;;;;;5094817;28;20116;-60
2022/12/03 11:25:30;;;;;;;34.03;17.10;;;2.90;99.90;;;;;;5114381;28;20035;-61
2022/12/03 11:28:10;;;;;;;29.58;16.15;;;2.90;99.90;;;;;;5114282;28;20051;-61
2022/12/03 11:30:48;;;;;;;28.13;15.70;;;2.90;99.90;;;;;;5113900;28;20043;-61
2022/12/03 11:33:23;;;;;;;34.65;18.45;;;2.90;99.90;;;;;;5114250;28;20050;-60
2022/12/03 11:36:04;;;;;;;30.30;17.30;;;2.90;99.90;;;;;;5113845;28;20043;-61
2022/12/03 11:38:43;;;;;;;32.08;17.58;;;3.00;99.90;;;;;;5113850;28;20050;-61
2022/12/03 11:41:16;;;;;;;28.05;17.23;;;3.00;99.90;;;;;;5113792;28;20069;-62
2022/12/03 11:43:51;;;;;;;31.38;16.63;;;2.90;99.90;;;;;;5114039;28;20051;-61
2022/12/03 11:46:39;;;;;;;27.85;16.42;;;2.90;99.90;;;;;;5113946;28;20051;-61
2022/12/03 11:49:31;;;;;;;29.33;15.93;;;2.90;99.90;;;;;;5112871;28;20036;-61
2022/12/03 11:51:59;;;;;;;29.48;16.55;;;2.90;99.90;;;;;;5112611;28;20043;-61
2022/12/03 11:54:25;;;;;;;29.73;17.48;;;2.90;99.90;;;;;;5112447;28;20096;-61
2022/12/03 11:56:52;;;;;;;35.30;18.98;;;2.80;99.90;;;;;;5113702;28;20039;-61
2022/12/03 11:59:18;;;;;;;30.42;17.73;;;2.90;99.90;;;;;;5113607;28;20046;-61
2022/12/03 12:01:44;;;;;;;32.08;17.55;;;2.90;99.90;;;;;;5113653;28;20036;-62
2022/12/03 12:04:31;;;;;;;29.25;17.23;;;2.90;99.90;;;;;;5113471;28;20035;-61
2022/12/03 12:06:57;;;;;;;33.85;19.63;;;2.90;99.90;;;;;;5113720;28;20035;-61
2022/12/03 12:09:51;;;;;;;31.77;17.38;;;2.90;99.90;;;;;;5113170;28;20118;-60
2022/12/03 12:12:36;;;;;;;30.05;18.25;;;3.00;99.90;;;;;;5113283;28;20031;-60
2022/12/03 12:15:41;;;;;;;36.95;19.90;;;2.90;99.90;;;;;;5113594;28;20066;-60
2022/12/03 12:18:43;;;;;;;32.25;17.30;;;3.00;99.90;;;;;;5113079;28;20050;-61
2022/12/03 12:21:46;;;;;;;30.95;17.73;;;2.90;99.90;;;;;;5109440;28;20488;-61
2022/12/03 12:24:40;;;;;;;36.13;19.63;;;2.90;99.90;;;;;;5111824;28;20085;-61
2022/12/03 12:27:31;;;;;;;32.08;18.13;;;2.90;99.90;;;;;;5113057;28;20833;-60
2022/12/03 12:29:59;;;;;;;29.50;17.10;;;2.90;99.90;;;;;;5112787;28;20134;-61
2022/12/03 12:32:28;;;;;;;31.50;18.13;;;2.90;99.90;;;;;;5094866;28;20435;-61
2022/12/03 12:35:09;;;;;;;32.95;18.45;;;2.90;99.90;;;;;;5113006;28;20040;-62
2022/12/03 12:37:42;;;;;;;29.40;16.65;;;2.90;99.90;;;;;;5113146;28;20043;-61
2022/12/03 12:40:16;;;;;;;33.22;17.00;;;2.90;99.90;;;;;;5112757;28;20051;-60
2022/12/03 12:42:50;;;;;;;29.92;17.52;;;2.90;99.90;;;;;;5112672;28;20438;-61
2022/12/03 12:45:22;;;;;;;33.33;17.52;;;2.90;99.90;;;;;;5112818;28;20062;-61
2022/12/03 12:48:23;;;;;;;30.13;16.58;;;2.90;99.90;;;;;;5112882;28;20046;-60
2022/12/03 12:50:59;;;;;;;32.58;17.52;;;2.90;99.90;;;;;;5009069;28;20049;-61
2022/12/03 12:53:32;;;;;;;32.00;17.13;;;2.90;99.90;;;;;;5028629;28;20042;-61
2022/12/03 12:56:05;;;;;;;31.17;17.17;;;2.80;99.90;;;;;;5029203;28;20487;-62
2022/12/03 12:58:32;;;;;;;37.05;18.23;;;2.90;99.90;;;;;;5029999;28;20042;-60
2022/12/03 13:01:02;;;;;;;29.02;17.90;;;2.80;99.90;;;;;;5029869;28;20048;-61
2022/12/03 13:03:32;;;;;;;27.40;16.98;;;2.80;99.90;;;;;;5030109;28;20045;-61
2022/12/03 13:06:00;;;;;;;30.10;18.15;;;2.80;99.90;;;;;;5029876;28;20045;-61
2022/12/03 13:08:29;;;;;;;34.25;18.73;;;2.70;99.90;;;;;;5013699;28;20555;-61
2022/12/03 13:10:59;;;;;;;;;;;2.80;99.90;;;;;;5030262;28;20119;-60